Flight Track Log - Related Links

Times and Time Zones

All times are in EDT time to prevent confusion due to time zone crossing. See the N960DL flight status page for this flight to view local times or setup timezone preferences in your user account.

Time Position Orientation Groundspeed Altitude Reporting Facility
EDT Latitude Longitude Course Direction KTS MPH feet Rate Location/Type
Fri 08:30:34 AM 37.1183 -76.5192 245° Southwest 151 174 1,300  Level Washington Center
Fri 08:31:46 AM 37.0928 -76.5867 245° Southwest 221 254 3,000 2,055 Climbing Washington Center
Fri 08:33:00 AM 37.0278 -76.6350 211° Southwest 218 251 6,300 2,776 Climbing Washington Center
Fri 08:34:00 AM 36.9753 -76.6786 214° Southwest 229 264 9,200 2,300 Climbing Washington Center
Fri 08:35:00 AM 36.9244 -76.7428 225° Southwest 241 277 10,900 1,950 Climbing Washington Center
Fri 08:36:00 AM 36.8697 -76.8147 226° Southwest 266 306 13,100 2,100 Climbing Washington Center
Fri 08:37:00 AM 36.8103 -76.8917 226° Southwest 294 338 15,100 2,300 Climbing Washington Center
Fri 08:38:00 AM 36.7594 -76.9789 234° Southwest 309 356 17,700 2,300 Climbing Washington Center
Fri 08:39:00 AM 36.7144 -77.0714 239° Southwest 319 367 19,700 1,750 Climbing Washington Center
Fri 08:40:00 AM 36.6653 -77.1664 237° Southwest 324 373 21,200 1,300 Climbing Washington Center
Fri 08:41:00 AM 36.6139 -77.2686 238° Southwest 340 391 22,300 750 Climbing Washington Center
Fri 08:42:00 AM 36.5642 -77.3736 240° Southwest 348 400 22,700 500 Climbing Washington Center
Fri 08:43:00 AM 36.5083 -77.4861 238° Southwest 365 420 23,300 650 Climbing Washington Center
Fri 08:44:00 AM 36.4478 -77.6086 238° Southwest 395 455 24,000 1,200 Climbing Washington Center
Fri 08:45:00 AM 36.3958 -77.7183 240° Southwest 402 463 25,700 1,650 Climbing Washington Center
Fri 08:46:00 AM 36.3147 -77.8192 225° Southwest 409 471 27,300 1,500 Climbing Washington Center
Fri 08:47:00 AM 36.2275 -77.9067 219° Southwest 409 471 28,700 1,350 Climbing Washington Center
Fri 08:48:00 AM 36.1342 -77.9889 215° Southwest 409 471 30,000 650 Climbing Washington Center
Fri 08:49:00 AM 36.0469 -78.0683 216° Southwest 409 471 30,000  Level Washington Center
Fri 08:50:00 AM 35.9578 -78.1478 216° Southwest 404 465 30,000  Level Washington Center
Fri 08:51:00 AM 35.8706 -78.2269 216° Southwest 399 459 30,000  Level Washington Center
Fri 08:52:00 AM 35.7811 -78.3086 217° Southwest 399 459 30,000  Level Washington Center
Fri 08:53:00 AM 35.6917 -78.3872 216° Southwest 399 459 30,000  Level Washington Center
Fri 08:54:00 AM 35.5892 -78.4783 216° Southwest 406 467 30,000  Level Washington Center
Fri 08:55:00 AM 35.4997 -78.5567 215° Southwest 411 473 30,000  Level Washington Center
Fri 08:56:00 AM 35.4078 -78.6400 216° Southwest 411 473 30,000  Level Washington Center
Fri 08:57:00 AM 35.3139 -78.7203 215° Southwest 411 473 30,000  Level Washington Center
Fri 08:58:00 AM 35.2222 -78.8006 216° Southwest 416 479 30,000  Level Washington Center
Fri 08:59:00 AM 35.1325 -78.8783 215° Southwest 416 479 30,000  Level Washington Center
Fri 09:00:00 AM 35.0447 -78.9558 216° Southwest 416 479 30,000  Level Washington Center
Fri 09:01:00 AM 34.9547 -79.0358 216° Southwest 416 479 30,000  Level Washington Center
Fri 09:02:00 AM 34.8647 -79.1131 215° Southwest 416 479 30,000  Level Washington Center
Fri 09:04:28 AM 34.6508 -79.2936 215° Southwest 412 474 30,000  Level Jacksonville Center
Fri 09:05:28 AM 34.5722 -79.3878 225° Southwest 407 468 30,000  Level Jacksonville Center
Fri 09:06:28 AM 34.5275 -79.5056 245° Southwest 388 447 30,000  Level Jacksonville Center
Fri 09:07:28 AM 34.4828 -79.6281 246° West 393 452 30,000  Level Jacksonville Center
Fri 09:08:28 AM 34.4381 -79.7583 247° West 386 444 30,000  Level Jacksonville Center
Fri 09:09:28 AM 34.3928 -79.8756 245° Southwest 386 444 30,000  Level Jacksonville Center
Fri 09:10:28 AM 34.3478 -80.0003 246° West 386 444 30,000  Level Jacksonville Center
Fri 09:11:28 AM 34.3006 -80.1225 245° Southwest 391 450 30,000  Level Jacksonville Center
Fri 09:12:28 AM 34.2531 -80.2447 245° Southwest 397 457 30,000  Level Jacksonville Center
Fri 09:13:28 AM 34.2053 -80.3642 244° Southwest 397 457 30,000  Level Jacksonville Center
Fri 09:14:28 AM 34.1597 -80.4808 245° Southwest 403 464 30,000  Level Jacksonville Center
Fri 09:15:28 AM 34.1119 -80.6000 244° Southwest 398 458 30,000  Level Jacksonville Center
Fri 09:16:28 AM 34.0681 -80.7192 246° West 398 458 30,000  Level Jacksonville Center
Fri 09:17:28 AM 34.0200 -80.8381 244° Southwest 398 458 30,000  Level Jacksonville Center
Fri 09:18:28 AM 33.9739 -80.9569 245° Southwest 398 458 30,000  Level Jacksonville Center
Fri 09:19:28 AM 33.9297 -81.0703 245° Southwest 393 452 30,000  Level Jacksonville Center
Fri 09:20:28 AM 33.8853 -81.1764 243° Southwest 388 447 30,000  Level Jacksonville Center
Fri 09:21:28 AM 33.8367 -81.2950 244° Southwest 388 447 30,000  Level Jacksonville Center
Fri 09:23:27 AM 33.7375 -81.5358 244° Southwest 379 436 30,000  Level Atlanta Center
Fri 09:24:27 AM 33.6919 -81.6569 246° West 391 450 30,000  Level Atlanta Center
Fri 09:25:27 AM 33.6461 -81.7731 245° Southwest 391 450 30,000  Level Atlanta Center
Fri 09:26:27 AM 33.6086 -81.8939 250° West 386 444 30,000  Level Atlanta Center
Fri 09:27:27 AM 33.5708 -82.0144 249° West 386 444 30,000 -50 Level Atlanta Center
Fri 09:28:27 AM 33.5353 -82.1372 251° West 391 450 29,900 -900 Descending Atlanta Center
Fri 09:29:27 AM 33.4975 -82.2603 250° West 391 450 28,200 -950 Descending Atlanta Center
Fri 09:30:27 AM 33.4575 -82.3881 249° West 396 456 28,000 -550 Descending Atlanta Center
Fri 09:31:27 AM 33.4217 -82.5106 251° West 404 465 27,100 -950 Descending Atlanta Center
Fri 09:32:27 AM 33.3853 -82.6308 250° West 398 458 26,100 -750 Descending Atlanta Center
Fri 09:33:27 AM 33.3472 -82.7556 250° West 392 451 25,600 -550 Descending Atlanta Center
Fri 09:34:27 AM 33.3211 -82.8631 254° West 392 451 25,000 -700 Descending Atlanta Center
Fri 09:35:27 AM 33.3078 -82.9997 263° West 382 440 24,200 -1,150 Descending Atlanta Center
Fri 09:36:27 AM 33.2942 -83.1217 262° West 382 440 22,700 -1,700 Descending Atlanta Center
Fri 09:37:27 AM 33.2822 -83.2311 263° West 374 430 20,800 -2,150 Descending Atlanta Center
Fri 09:38:27 AM 33.2683 -83.3456 262° West 361 415 18,400 -2,450 Descending Atlanta Center
Fri 09:39:27 AM 33.2586 -83.4600 264° West 353 406 15,900 -2,400 Descending Atlanta Center
Fri 09:40:27 AM 33.2444 -83.5719 261° West 353 406 13,600 -2,035 Descending Atlanta Center
Fri 09:41:22 AM 33.2333 -83.6833 263° West 324 373 12,000 -835 Descending Atlanta TRACON
Fri 09:42:22 AM 33.2167 -83.7833 259° West 306 352 12,000 -250 Level Atlanta TRACON
Fri 09:43:22 AM 33.2500 -83.8667 296° West 286 329 11,500 -650 Descending Atlanta TRACON
Fri 09:44:22 AM 33.3000 -83.9333 312° West 288 331 10,700 -1,000 Descending Atlanta TRACON
Fri 09:45:22 AM 33.3500 -84.0167 306° West 276 318 9,500 -1,500 Descending Atlanta TRACON
Fri 09:46:22 AM 33.4000 -84.0833 312° West 286 329 7,700 -1,421 Descending Atlanta TRACON
Fri 09:47:16 AM 33.4333 -84.1500 301° West 266 306 6,800 -895 Descending Atlanta TRACON
Fri 09:48:16 AM 33.5000 -84.1833 337° Northwest 258 297 6,000 -842 Descending Atlanta TRACON
Fri 09:49:10 AM 33.5500 -84.1500 29° Northeast 276 318 5,200 -750 Descending Atlanta TRACON
Fri 09:50:16 AM 33.5667 -84.0667 76° East 231 266 4,500 -600 Descending Atlanta TRACON
Fri 09:51:10 AM 33.5500 -84.0000 107° East 222 255 4,000 -263 Descending Atlanta TRACON
Fri 09:52:10 AM 33.5833 -83.9667 40° Northeast 211 243 4,000  Level Atlanta TRACON
Fri 09:53:04 AM 33.6000 -84.0167 292° West 162 186 4,000 -263 Level Atlanta TRACON
Fri 09:54:04 AM 33.6167 -84.0667 292° West 168 193 3,500 -333 Descending Atlanta TRACON
Fri 09:56:04 AM 33.6167 -84.1833 270° West 169 194 3,000 -172 Descending Atlanta TRACON
Fri 09:56:58 AM 33.6167 -84.2333 270° West 171 197 3,000 -50 Level Atlanta TRACON
Fri 09:58:04 AM 33.6167 -84.3000 270° West 172 198 2,900 -400 Descending Atlanta TRACON
Fri 09:58:58 AM 33.6167 -84.3500 270° West 160 184 2,200 -789 Descending Atlanta TRACON
Fri 09:59:58 AM 33.6167 -84.4000 270° West 142 163 1,400 -800 Descending Atlanta TRACON
Fri 10:01:00 AM 33.6333 -84.4167 283° West  Level FlightAware Approximate
Fri 10:08:00 AM 33.6367 -84.4279 283° West  Level Estimated

Login

Don't have an account? Register now (free) for customized features, flight alerts, and more!